Time;durP1;ratioP1;P1;durP2;ratioP2;P2;SDS_P1;SDS_P2;PMS_P1;PMS_P2;Temp;Humidity;BMP_temperature;BMP_pressure;BME280_temperature;BME280_humidity;BME280_pressure;Samples;Min_cycle;Max_cycle;Signal;HPM_P1;HPM_P2
2024/01/24 00:00:24;;;;;;;4.87;1.60;;;;;;;;;;5081702;28;20024;-96
2024/01/24 00:02:49;;;;;;;4.67;1.50;;;;;;;;;;5103528;28;20084;-95
2024/01/24 00:05:15;;;;;;;5.13;1.40;;;;;;;;;;5094889;28;20036;-95
2024/01/24 00:07:41;;;;;;;4.85;1.38;;;;;;;;;;5111575;28;20019;-95
2024/01/24 00:10:06;;;;;;;7.17;1.80;;;;;;;;;;5100319;28;20456;-95
2024/01/24 00:12:31;;;;;;;3.60;1.23;;;;;;;;;;5079117;28;20024;-95
2024/01/24 00:14:57;;;;;;;4.70;1.23;;;;;;;;;;5081782;28;20380;-95
2024/01/24 00:17:22;;;;;;;3.67;1.20;;;;;;;;;;5083045;28;20027;-96
2024/01/24 00:19:47;;;;;;;6.50;1.30;;;;;;;;;;5077822;28;20017;-96
2024/01/24 00:22:15;;;;;;;4.88;1.30;;;;;;;;;;5077058;28;20109;-95
2024/01/24 00:24:41;;;;;;;3.50;1.00;;;;;;;;;;5076246;28;20013;-93
2024/01/24 00:27:06;;;;;;;4.10;0.93;;;;;;;;;;5075661;28;20016;-95
2024/01/24 00:29:31;;;;;;;3.00;0.93;;;;;;;;;;5092032;28;20023;-96
2024/01/24 00:31:56;;;;;;;4.15;1.08;;;;;;;;;;5099685;28;20039;-95
2024/01/24 00:34:22;;;;;;;6.33;1.20;;;;;;;;;;5085194;28;20085;-96
2024/01/24 00:36:49;;;;;;;2.83;0.90;;;;;;;;;;5079290;28;20029;-96
2024/01/24 00:39:14;;;;;;;2.78;1.02;;;;;;;;;;5056193;28;20403;-96
2024/01/24 00:41:42;;;;;;;3.10;1.13;;;;;;;;;;5075649;28;20103;-96
2024/01/24 00:44:08;;;;;;;2.53;0.90;;;;;;;;;;5074846;28;20019;-96
2024/01/24 00:46:33;;;;;;;3.07;0.90;;;;;;;;;;5065565;28;20097;-96
2024/01/24 00:48:58;;;;;;;2.80;0.90;;;;;;;;;;5081272;28;20024;-96
2024/01/24 00:51:23;;;;;;;4.03;1.20;;;;;;;;;;5075691;28;20032;-96
2024/01/24 00:53:52;;;;;;;1.53;1.00;;;;;;;;;;5075241;28;20012;-95
2024/01/24 00:56:17;;;;;;;2.03;1.10;;;;;;;;;;5094318;28;20035;-96
2024/01/24 00:58:43;;;;;;;2.40;1.00;;;;;;;;;;5096128;28;20025;-95
2024/01/24 01:01:08;;;;;;;3.97;1.10;;;;;;;;;;5076449;28;20031;-95
2024/01/24 01:03:33;;;;;;;3.80;1.23;;;;;;;;;;5102453;28;20026;-96
2024/01/24 01:05:58;;;;;;;6.03;0.80;;;;;;;;;;5077957;28;20490;-96
2024/01/24 01:08:23;;;;;;;3.57;1.20;;;;;;;;;;5098512;28;20100;-96
2024/01/24 01:10:49;;;;;;;4.37;1.10;;;;;;;;;;5097187;28;20031;-96
2024/01/24 01:13:14;;;;;;;3.17;0.97;;;;;;;;;;5098992;28;20018;-96
2024/01/24 01:15:40;;;;;;;4.70;1.00;;;;;;;;;;5103002;28;20016;-94
2024/01/24 01:18:05;;;;;;;3.28;1.23;;;;;;;;;;5102346;28;20024;-95
2024/01/24 01:20:31;;;;;;;2.80;1.30;;;;;;;;;;5099598;28;20027;-96
2024/01/24 01:22:56;;;;;;;2.88;0.90;;;;;;;;;;5099614;28;20040;-96
2024/01/24 01:25:22;;;;;;;3.47;0.97;;;;;;;;;;5096125;28;20016;-94
2024/01/24 01:27:47;;;;;;;3.17;1.00;;;;;;;;;;5098015;28;20375;-95
2024/01/24 01:30:12;;;;;;;1.50;1.13;;;;;;;;;;5100160;28;20059;-95
2024/01/24 01:32:38;;;;;;;3.80;1.07;;;;;;;;;;5102357;28;20051;-96
2024/01/24 01:35:04;;;;;;;4.97;1.10;;;;;;;;;;5087379;28;20035;-95
2024/01/24 01:37:29;;;;;;;4.33;1.27;;;;;;;;;;5102095;28;20111;-96
2024/01/24 01:39:54;;;;;;;3.97;1.20;;;;;;;;;;5098943;28;20467;-94
2024/01/24 01:42:19;;;;;;;2.13;1.17;;;;;;;;;;5081333;28;20046;-95
2024/01/24 01:44:48;;;;;;;3.73;1.27;;;;;;;;;;5101653;28;20026;-96
2024/01/24 01:47:13;;;;;;;3.13;1.30;;;;;;;;;;5080990;28;20028;-95
2024/01/24 01:49:39;;;;;;;1.92;1.10;;;;;;;;;;5098991;28;20076;-96
2024/01/24 01:52:05;;;;;;;4.10;0.97;;;;;;;;;;5083429;28;20020;-95
2024/01/24 01:54:30;;;;;;;3.75;1.08;;;;;;;;;;5088950;28;19996;-95
2024/01/24 01:56:55;;;;;;;1.63;1.20;;;;;;;;;;5107761;28;20028;-94
2024/01/24 01:59:20;;;;;;;2.00;0.87;;;;;;;;;;5107321;28;20570;-94
2024/01/24 02:01:46;;;;;;;2.40;1.20;;;;;;;;;;5112243;28;20012;-93
2024/01/24 02:04:11;;;;;;;2.83;0.90;;;;;;;;;;5114959;28;20004;-94
2024/01/24 02:06:36;;;;;;;3.03;1.20;;;;;;;;;;5117460;28;20081;-95
2024/01/24 02:09:02;;;;;;;1.85;0.88;;;;;;;;;;5112372;28;20005;-93
2024/01/24 02:11:27;;;;;;;1.93;1.00;;;;;;;;;;5079891;28;20004;-94
2024/01/24 02:14:01;;;;;;;3.10;1.20;;;;;;;;;;5110271;28;20071;-93
2024/01/24 02:16:28;;;;;;;2.30;1.13;;;;;;;;;;5114370;28;20032;-94
2024/01/24 02:18:53;;;;;;;1.20;0.85;;;;;;;;;;5116911;28;20031;-93
2024/01/24 02:21:19;;;;;;;1.27;0.90;;;;;;;;;;5079977;28;20008;-93
2024/01/24 02:23:45;;;;;;;2.17;1.23;;;;;;;;;;5089919;28;20012;-94
2024/01/24 02:26:11;;;;;;;1.85;1.00;;;;;;;;;;5118507;28;20008;-94
2024/01/24 02:28:36;;;;;;;1.50;1.10;;;;;;;;;;5116127;28;20028;-93
2024/01/24 02:31:01;;;;;;;1.00;0.90;;;;;;;;;;5100718;28;20008;-93
2024/01/24 02:33:26;;;;;;;2.27;1.07;;;;;;;;;;5098177;28;20034;-93
2024/01/24 02:35:53;;;;;;;1.10;0.80;;;;;;;;;;5106323;28;20031;-93
2024/01/24 02:38:18;;;;;;;1.27;1.05;;;;;;;;;;5116775;28;20016;-93
2024/01/24 02:40:44;;;;;;;1.70;0.80;;;;;;;;;;5097620;28;20016;-92
2024/01/24 02:43:09;;;;;;;1.27;0.90;;;;;;;;;;5097638;28;20012;-93
2024/01/24 02:45:34;;;;;;;0.83;0.60;;;;;;;;;;5097942;28;20012;-93
2024/01/24 02:48:00;;;;;;;2.30;0.60;;;;;;;;;;5100282;28;20028;-93
2024/01/24 02:50:25;;;;;;;1.87;0.73;;;;;;;;;;5099912;28;20017;-93
2024/01/24 02:52:50;;;;;;;1.30;0.70;;;;;;;;;;5097537;28;20025;-93
2024/01/24 02:55:16;;;;;;;0.80;0.80;;;;;;;;;;5097588;28;20009;-93
2024/01/24 02:57:41;;;;;;;1.02;0.70;;;;;;;;;;5080300;28;20043;-92
2024/01/24 03:00:07;;;;;;;1.47;0.80;;;;;;;;;;5096746;28;20072;-93
2024/01/24 03:02:32;;;;;;;1.93;0.70;;;;;;;;;;5099410;28;20019;-92
2024/01/24 03:04:57;;;;;;;0.80;0.80;;;;;;;;;;5117723;28;20000;-93
2024/01/24 03:07:23;;;;;;;1.13;0.80;;;;;;;;;;5110762;28;20024;-93
2024/01/24 03:09:48;;;;;;;1.00;0.90;;;;;;;;;;5098846;28;19997;-93
2024/01/24 03:12:13;;;;;;;1.53;1.00;;;;;;;;;;5115780;28;20071;-93
2024/01/24 03:14:38;;;;;;;1.63;1.03;;;;;;;;;;5116108;28;20028;-93
2024/01/24 03:17:03;;;;;;;2.47;1.60;;;;;;;;;;5116294;28;20032;-93
2024/01/24 03:19:29;;;;;;;2.37;1.30;;;;;;;;;;5107783;28;20031;-94
2024/01/24 03:21:54;;;;;;;3.53;1.30;;;;;;;;;;5096814;28;20012;-93
2024/01/24 03:24:19;;;;;;;2.90;1.63;;;;;;;;;;5097334;28;20080;-94
2024/01/24 03:26:45;;;;;;;1.83;1.20;;;;;;;;;;5097266;28;20013;-93
2024/01/24 03:29:10;;;;;;;1.57;1.10;;;;;;;;;;5075168;28;20483;-94
2024/01/24 03:31:35;;;;;;;2.50;1.10;;;;;;;;;;5107664;28;20274;-94
2024/01/24 03:34:00;;;;;;;3.50;0.80;;;;;;;;;;5106923;28;20027;-94
2024/01/24 03:36:26;;;;;;;1.73;1.00;;;;;;;;;;5070192;28;20034;-93
2024/01/24 03:38:51;;;;;;;1.77;1.10;;;;;;;;;;5093297;28;20067;-95
2024/01/24 03:41:16;;;;;;;2.50;1.13;;;;;;;;;;5102226;28;20517;-93
2024/01/24 03:43:42;;;;;;;2.90;1.20;;;;;;;;;;5114598;28;20038;-95
2024/01/24 03:46:07;;;;;;;1.83;1.05;;;;;;;;;;5113884;28;20023;-94
2024/01/24 03:48:32;;;;;;;2.37;0.83;;;;;;;;;;5099419;28;20019;-94
2024/01/24 03:50:58;;;;;;;4.10;1.00;;;;;;;;;;5105491;28;20106;-93
2024/01/24 03:53:23;;;;;;;5.03;0.90;;;;;;;;;;5114999;28;20012;-95
2024/01/24 03:55:48;;;;;;;3.40;1.10;;;;;;;;;;5103297;28;20055;-94
2024/01/24 03:58:13;;;;;;;6.53;1.17;;;;;;;;;;5116226;28;20056;-95
2024/01/24 04:00:39;;;;;;;4.73;1.27;;;;;;;;;;5104550;28;20047;-95
2024/01/24 04:03:04;;;;;;;12.03;1.77;;;;;;;;;;5099515;28;20282;-95
2024/01/24 04:05:29;;;;;;;5.33;1.40;;;;;;;;;;5117064;28;20028;-94
2024/01/24 04:07:54;;;;;;;8.87;1.30;;;;;;;;;;5097709;28;20001;-94
2024/01/24 04:10:20;;;;;;;5.27;1.10;;;;;;;;;;5111554;28;20111;-95
2024/01/24 04:12:45;;;;;;;10.10;1.40;;;;;;;;;;5098314;28;20016;-94
2024/01/24 04:15:10;;;;;;;10.60;2.07;;;;;;;;;;5095974;28;20087;-95
2024/01/24 04:17:35;;;;;;;16.23;2.03;;;;;;;;;;5116023;28;20295;-94
2024/01/24 04:20:01;;;;;;;10.07;1.93;;;;;;;;;;5115940;28;20015;-95
2024/01/24 04:22:26;;;;;;;13.68;2.45;;;;;;;;;;5097822;28;20035;-95
2024/01/24 04:24:51;;;;;;;12.77;1.80;;;;;;;;;;5097816;28;20038;-95
2024/01/24 04:27:18;;;;;;;11.07;1.87;;;;;;;;;;5115098;28;20127;-95
2024/01/24 04:29:43;;;;;;;14.95;2.17;;;;;;;;;;5097164;28;20012;-95
2024/01/24 04:32:09;;;;;;;14.40;1.67;;;;;;;;;;5112122;28;20023;-96
2024/01/24 04:34:34;;;;;;;17.88;2.40;;;;;;;;;;5091504;28;20016;-96
2024/01/24 04:37:00;;;;;;;12.57;2.23;;;;;;;;;;5116134;28;20020;-96
2024/01/24 04:39:25;;;;;;;14.30;2.10;;;;;;;;;;5113579;28;20086;-96
2024/01/24 04:41:50;;;;;;;16.50;2.67;;;;;;;;;;5098670;28;20051;-96
2024/01/24 04:44:15;;;;;;;19.23;2.47;;;;;;;;;;5115620;28;20016;-95
2024/01/24 04:46:41;;;;;;;11.10;2.30;;;;;;;;;;5101867;28;20013;-95
2024/01/24 04:49:07;;;;;;;17.63;3.30;;;;;;;;;;5101854;28;20040;-96
2024/01/24 04:51:33;;;;;;;15.82;2.50;;;;;;;;;;5101478;28;20020;-95
2024/01/24 04:53:58;;;;;;;13.27;2.33;;;;;;;;;;5120142;28;20023;-96
2024/01/24 04:56:23;;;;;;;13.87;2.80;;;;;;;;;;5117926;28;20344;-96
2024/01/24 04:58:48;;;;;;;18.37;2.83;;;;;;;;;;5113475;28;20023;-96
2024/01/24 05:01:13;;;;;;;21.37;2.83;;;;;;;;;;5091933;28;20028;-95
2024/01/24 05:03:39;;;;;;;19.17;2.90;;;;;;;;;;5110055;28;20032;-96
2024/01/24 05:06:04;;;;;;;20.27;2.77;;;;;;;;;;5108067;28;20070;-96
2024/01/24 05:08:29;;;;;;;26.97;3.33;;;;;;;;;;5112242;28;20099;-94
2024/01/24 05:14:02;;;;;;;17.35;2.45;;;;;;;;;;5101360;28;20066;-95
2024/01/24 05:16:29;;;;;;;21.08;3.22;;;;;;;;;;5088583;28;20021;-96
2024/01/24 05:18:55;;;;;;;23.13;3.15;;;;;;;;;;5091748;28;20032;-95
2024/01/24 05:21:20;;;;;;;18.20;3.87;;;;;;;;;;5105415;28;20020;-96
2024/01/24 05:23:46;;;;;;;26.43;3.03;;;;;;;;;;5088432;28;20031;-95
2024/01/24 05:26:11;;;;;;;23.35;3.75;;;;;;;;;;5103506;28;20428;-93
2024/01/24 05:28:36;;;;;;;28.33;3.40;;;;;;;;;;5105336;28;20016;-95
2024/01/24 05:31:02;;;;;;;27.43;4.30;;;;;;;;;;5082942;28;20032;-95
2024/01/24 05:33:28;;;;;;;28.47;3.50;;;;;;;;;;5081085;28;20016;-94
2024/01/24 05:35:53;;;;;;;21.17;3.60;;;;;;;;;;5082558;28;20282;-95
2024/01/24 05:38:20;;;;;;;24.83;3.30;;;;;;;;;;5071675;28;20028;-94
2024/01/24 05:40:45;;;;;;;29.85;4.13;;;;;;;;;;5103235;28;20035;-96
2024/01/24 05:43:12;;;;;;;34.13;4.60;;;;;;;;;;5089435;28;20024;-96
2024/01/24 05:45:38;;;;;;;23.70;3.50;;;;;;;;;;5104075;28;20035;-94
2024/01/24 05:48:03;;;;;;;18.50;3.50;;;;;;;;;;5096707;28;20182;-95
2024/01/24 05:50:28;;;;;;;23.87;3.60;;;;;;;;;;5092111;28;20024;-96
2024/01/24 05:52:53;;;;;;;17.87;2.97;;;;;;;;;;5102978;28;20031;-96
2024/01/24 05:55:19;;;;;;;27.03;3.97;;;;;;;;;;5099624;28;20012;-92
2024/01/24 05:57:46;;;;;;;26.80;4.00;;;;;;;;;;5097011;28;20028;-93
2024/01/24 06:00:14;;;;;;;25.88;3.88;;;;;;;;;;5097505;28;20020;-92
2024/01/24 06:02:40;;;;;;;28.02;4.22;;;;;;;;;;5099525;28;20024;-96
2024/01/24 06:05:07;;;;;;;29.63;5.18;;;;;;;;;;5091823;28;20042;-94
2024/01/24 06:07:33;;;;;;;21.33;3.88;;;;;;;;;;5100071;28;20020;-96
2024/01/24 06:09:58;;;;;;;24.90;3.60;;;;;;;;;;5115153;28;20032;-96
2024/01/24 06:12:23;;;;;;;20.80;3.90;;;;;;;;;;5111543;28;20035;-96
2024/01/24 06:14:49;;;;;;;23.23;3.40;;;;;;;;;;5092722;28;20032;-96
2024/01/24 06:17:17;;;;;;;26.23;4.13;;;;;;;;;;5096879;28;20044;-96
2024/01/24 06:19:43;;;;;;;26.25;4.40;;;;;;;;;;5088187;28;20020;-96
2024/01/24 06:22:08;;;;;;;38.67;5.38;;;;;;;;;;5108451;28;20020;-96
2024/01/24 06:24:35;;;;;;;25.80;3.90;;;;;;;;;;5108750;28;20016;-96
2024/01/24 06:27:14;;;;;;;30.70;4.45;;;;;;;;;;5110589;28;20012;-96
2024/01/24 06:29:41;;;;;;;28.45;5.15;;;;;;;;;;5115340;28;20020;-96
2024/01/24 06:32:06;;;;;;;33.40;4.28;;;;;;;;;;5095794;28;20050;-95
2024/01/24 06:34:32;;;;;;;30.23;5.07;;;;;;;;;;5076938;28;20107;-96
2024/01/24 06:36:58;;;;;;;22.50;4.07;;;;;;;;;;5072309;28;20035;-95
2024/01/24 06:39:30;;;;;;;30.33;5.15;;;;;;;;;;5091721;28;20020;-96
2024/01/24 06:41:56;;;;;;;37.40;4.23;;;;;;;;;;5080030;28;20008;-96
2024/01/24 06:44:25;;;;;;;35.83;4.80;;;;;;;;;;5384320;23;20321;-96
2024/01/24 06:46:51;;;;;;;31.27;4.80;;;;;;;;;;5113388;28;20062;-96
2024/01/24 06:49:16;;;;;;;31.03;4.53;;;;;;;;;;5132396;28;20016;-88
2024/01/24 06:51:45;;;;;;;32.80;4.10;;;;;;;;;;5077774;28;20027;-88
2024/01/24 06:54:12;;;;;;;28.42;4.28;;;;;;;;;;5072298;28;20450;-87
2024/01/24 06:56:37;;;;;;;37.43;4.83;;;;;;;;;;5078593;28;20131;-87
2024/01/24 06:59:03;;;;;;;34.10;4.82;;;;;;;;;;5091406;28;20046;-87
2024/01/24 07:01:28;;;;;;;40.03;5.70;;;;;;;;;;5090881;28;20020;-87
2024/01/24 07:03:53;;;;;;;36.47;5.27;;;;;;;;;;5081548;28;20013;-88
2024/01/24 07:06:18;;;;;;;37.10;5.40;;;;;;;;;;5071297;28;20009;-88
2024/01/24 07:08:43;;;;;;;36.10;5.00;;;;;;;;;;5085298;28;20016;-93
2024/01/24 07:11:09;;;;;;;38.33;4.97;;;;;;;;;;5104053;28;20012;-91
2024/01/24 07:13:34;;;;;;;34.30;4.97;;;;;;;;;;5103949;28;20471;-91
2024/01/24 07:16:04;;;;;;;37.77;5.60;;;;;;;;;;5079148;28;20086;-88
2024/01/24 07:18:31;;;;;;;37.22;4.55;;;;;;;;;;5073059;28;20062;-87
2024/01/24 07:20:56;;;;;;;39.40;4.82;;;;;;;;;;5073715;28;20082;-88
2024/01/24 07:23:21;;;;;;;38.13;4.73;;;;;;;;;;5092980;28;20024;-90
2024/01/24 07:25:47;;;;;;;38.13;4.77;;;;;;;;;;5060146;28;20091;-88
2024/01/24 07:28:12;;;;;;;36.70;5.27;;;;;;;;;;5071118;28;20376;-89
2024/01/24 07:30:37;;;;;;;34.27;4.87;;;;;;;;;;5085312;28;20517;-88
2024/01/24 07:33:04;;;;;;;34.30;5.30;;;;;;;;;;5073869;28;20768;-87
2024/01/24 07:35:30;;;;;;;41.38;5.00;;;;;;;;;;5081449;28;20015;-87
2024/01/24 07:37:55;;;;;;;40.87;5.00;;;;;;;;;;5074112;28;20037;-87
2024/01/24 07:40:20;;;;;;;36.37;5.03;;;;;;;;;;5080179;28;20021;-87
2024/01/24 07:42:45;;;;;;;41.63;6.17;;;;;;;;;;5085382;28;20031;-88
2024/01/24 07:45:10;;;;;;;40.40;5.23;;;;;;;;;;5082514;28;20017;-88
2024/01/24 07:47:36;;;;;;;35.27;4.47;;;;;;;;;;5091001;28;20044;-88
2024/01/24 07:50:03;;;;;;;36.57;5.03;;;;;;;;;;5084889;28;20021;-86
2024/01/24 07:52:28;;;;;;;39.30;5.47;;;;;;;;;;5075238;28;20043;-87
2024/01/24 07:54:53;;;;;;;27.73;4.53;;;;;;;;;;5073163;28;20472;-84
2024/01/24 07:57:18;;;;;;;36.77;5.43;;;;;;;;;;5054534;28;20033;-86
2024/01/24 07:59:44;;;;;;;34.13;4.80;;;;;;;;;;5088290;28;20398;-90
2024/01/24 08:02:09;;;;;;;32.03;5.77;;;;;;;;;;5098157;28;20032;-87
2024/01/24 08:04:34;;;;;;;41.90;5.32;;;;;;;;;;5068314;28;20021;-91
2024/01/24 08:06:59;;;;;;;44.13;5.27;;;;;;;;;;5093958;28;20024;-90
2024/01/24 08:09:26;;;;;;;37.93;4.77;;;;;;;;;;5087880;28;20427;-88
2024/01/24 08:11:51;;;;;;;42.83;5.75;;;;;;;;;;5082168;28;20115;-89
2024/01/24 08:14:17;;;;;;;38.07;4.40;;;;;;;;;;5088239;28;20028;-90
2024/01/24 08:17:02;;;;;;;42.80;4.73;;;;;;;;;;5068647;28;20024;-89
2024/01/24 08:19:27;;;;;;;34.75;4.47;;;;;;;;;;5095908;28;20161;-89
2024/01/24 08:21:52;;;;;;;43.40;4.97;;;;;;;;;;5080153;28;20047;-88
2024/01/24 08:24:17;;;;;;;34.17;5.23;;;;;;;;;;5085738;28;20029;-87
2024/01/24 08:26:42;;;;;;;31.67;4.63;;;;;;;;;;5082125;28;20036;-90
2024/01/24 08:29:08;;;;;;;36.87;4.57;;;;;;;;;;5059625;28;20035;-86
2024/01/24 08:31:33;;;;;;;41.73;5.17;;;;;;;;;;5045855;28;20055;-89
2024/01/24 08:33:58;;;;;;;33.77;4.77;;;;;;;;;;5080051;28;20399;-86
2024/01/24 08:36:23;;;;;;;30.20;4.27;;;;;;;;;;5070826;28;20032;-85
2024/01/24 08:38:48;;;;;;;30.10;4.53;;;;;;;;;;5091081;28;20282;-88
2024/01/24 08:41:14;;;;;;;37.63;4.97;;;;;;;;;;5107311;28;20095;-85
2024/01/24 08:43:39;;;;;;;31.93;4.27;;;;;;;;;;5101107;28;20107;-87
2024/01/24 08:46:04;;;;;;;40.93;5.67;;;;;;;;;;5078620;28;20032;-84
2024/01/24 08:48:29;;;;;;;35.77;5.40;;;;;;;;;;5073770;28;20033;-87
2024/01/24 08:50:55;;;;;;;39.23;6.07;;;;;;;;;;5071631;28;20056;-85
2024/01/24 08:53:20;;;;;;;35.13;5.70;;;;;;;;;;5053181;28;20545;-87
2024/01/24 08:55:45;;;;;;;36.97;4.53;;;;;;;;;;5082832;28;20031;-87
2024/01/24 08:58:10;;;;;;;40.70;5.43;;;;;;;;;;5079980;28;20029;-87
2024/01/24 09:00:35;;;;;;;30.93;4.67;;;;;;;;;;5080543;28;20029;-87
2024/01/24 09:03:00;;;;;;;34.57;4.70;;;;;;;;;;5073633;28;20025;-86
2024/01/24 09:05:26;;;;;;;33.90;4.57;;;;;;;;;;5070032;28;20112;-87
2024/01/24 09:07:51;;;;;;;38.67;6.30;;;;;;;;;;5067768;28;20035;-87
2024/01/24 09:10:16;;;;;;;34.47;5.37;;;;;;;;;;5073836;28;20452;-86
2024/01/24 09:12:41;;;;;;;36.77;5.77;;;;;;;;;;5073077;28;20028;-86
2024/01/24 09:15:07;;;;;;;27.87;4.43;;;;;;;;;;5068522;28;20017;-85
2024/01/24 09:17:35;;;;;;;31.23;5.15;;;;;;;;;;5074763;28;20691;-86
2024/01/24 09:20:00;;;;;;;34.35;4.95;;;;;;;;;;5070142;28;20087;-86
2024/01/24 09:22:25;;;;;;;37.70;5.07;;;;;;;;;;5078061;28;20486;-85
2024/01/24 09:24:51;;;;;;;30.30;4.10;;;;;;;;;;5072377;28;20021;-86
2024/01/24 09:27:16;;;;;;;45.53;5.27;;;;;;;;;;5074092;28;20512;-88
2024/01/24 09:29:41;;;;;;;35.10;5.27;;;;;;;;;;5081501;28;20082;-88
2024/01/24 09:32:06;;;;;;;31.33;4.60;;;;;;;;;;5071752;28;20032;-88
2024/01/24 09:34:32;;;;;;;30.03;4.87;;;;;;;;;;5056664;28;20004;-86
2024/01/24 09:36:57;;;;;;;39.13;5.55;;;;;;;;;;5072220;28;20033;-87
2024/01/24 09:39:25;;;;;;;37.23;5.20;;;;;;;;;;5073352;28;20035;-86
2024/01/24 09:41:51;;;;;;;35.10;5.10;;;;;;;;;;5069571;28;20095;-87
2024/01/24 09:44:17;;;;;;;39.85;5.15;;;;;;;;;;5070666;28;20058;-86
2024/01/24 09:46:42;;;;;;;34.42;5.93;;;;;;;;;;5072401;28;20013;-84
2024/01/24 09:49:08;;;;;;;38.90;5.30;;;;;;;;;;5072823;28;20029;-85
2024/01/24 09:51:34;;;;;;;41.07;6.33;;;;;;;;;;5071164;28;20029;-85
2024/01/24 09:54:05;;;;;;;34.30;4.28;;;;;;;;;;5077816;28;20494;-83
2024/01/24 09:56:32;;;;;;;43.85;5.13;;;;;;;;;;5082557;28;20028;-83
2024/01/24 09:58:57;;;;;;;32.80;6.20;;;;;;;;;;5072108;28;20480;-84
2024/01/24 10:01:24;;;;;;;39.70;5.67;;;;;;;;;;5071163;28;20016;-83
2024/01/24 10:03:50;;;;;;;34.08;5.38;;;;;;;;;;5071055;28;20025;-83
2024/01/24 10:06:16;;;;;;;33.57;5.17;;;;;;;;;;5070029;28;20016;-84
2024/01/24 10:08:41;;;;;;;32.80;5.90;;;;;;;;;;5080348;28;20107;-84
2024/01/24 10:11:06;;;;;;;37.57;5.57;;;;;;;;;;5091057;28;20061;-86
2024/01/24 10:13:31;;;;;;;38.53;4.97;;;;;;;;;;5083057;28;20017;-85
2024/01/24 10:15:58;;;;;;;38.30;5.17;;;;;;;;;;5075739;28;20024;-85
2024/01/24 10:18:24;;;;;;;35.47;4.82;;;;;;;;;;5052523;28;20105;-86
2024/01/24 10:20:49;;;;;;;31.73;4.90;;;;;;;;;;5055259;28;20065;-85
2024/01/24 10:23:15;;;;;;;37.27;4.40;;;;;;;;;;5073681;28;20036;-84
2024/01/24 10:25:41;;;;;;;33.85;5.03;;;;;;;;;;5070858;28;20024;-84
2024/01/24 10:28:13;;;;;;;34.50;5.20;;;;;;;;;;5072608;28;20476;-84
2024/01/24 10:30:39;;;;;;;35.47;5.47;;;;;;;;;;5071926;28;20028;-83
2024/01/24 10:33:06;;;;;;;34.07;4.97;;;;;;;;;;5071145;28;20295;-83
2024/01/24 10:35:31;;;;;;;34.63;5.38;;;;;;;;;;5070738;28;20460;-85
2024/01/24 10:37:56;;;;;;;36.43;5.57;;;;;;;;;;5071339;28;20051;-85
2024/01/24 10:40:22;;;;;;;39.40;5.70;;;;;;;;;;5069475;28;20074;-84
2024/01/24 10:42:51;;;;;;;28.05;4.60;;;;;;;;;;5053262;28;20027;-85
2024/01/24 10:45:17;;;;;;;39.30;5.22;;;;;;;;;;5070582;28;20420;-84
2024/01/24 10:47:43;;;;;;;36.30;4.63;;;;;;;;;;5070995;28;20024;-84
2024/01/24 10:50:09;;;;;;;36.67;5.23;;;;;;;;;;5069391;28;20515;-84
2024/01/24 10:52:35;;;;;;;33.33;4.85;;;;;;;;;;5068679;28;20066;-84
2024/01/24 10:55:03;;;;;;;34.17;4.23;;;;;;;;;;5069916;28;20040;-85
2024/01/24 10:57:29;;;;;;;37.70;5.57;;;;;;;;;;5052466;28;20800;-84
2024/01/24 10:59:56;;;;;;;34.03;5.38;;;;;;;;;;5069951;28;20020;-84
2024/01/24 11:02:21;;;;;;;28.30;4.30;;;;;;;;;;5070569;28;20074;-84
2024/01/24 11:04:47;;;;;;;32.57;4.80;;;;;;;;;;5052266;28;20427;-84
2024/01/24 11:07:14;;;;;;;31.58;4.28;;;;;;;;;;5069549;28;20028;-84
2024/01/24 11:10:18;;;;;;;37.10;4.73;;;;;;;;;;5078984;28;20083;-84
2024/01/24 11:12:43;;;;;;;33.00;5.50;;;;;;;;;;5072724;28;20028;-84
2024/01/24 11:15:11;;;;;;;32.50;4.70;;;;;;;;;;5090276;28;20031;-84
2024/01/24 11:17:37;;;;;;;33.53;5.00;;;;;;;;;;5072181;28;20372;-84
2024/01/24 11:20:05;;;;;;;29.90;4.37;;;;;;;;;;5069311;28;20265;-84
2024/01/24 11:22:31;;;;;;;30.35;4.57;;;;;;;;;;5077307;28;20099;-84
2024/01/24 11:24:58;;;;;;;37.27;5.10;;;;;;;;;;5079019;28;20417;-85
2024/01/24 11:27:25;;;;;;;28.73;4.38;;;;;;;;;;5074396;28;20052;-83
2024/01/24 11:29:50;;;;;;;27.38;4.55;;;;;;;;;;5071155;28;20082;-83
2024/01/24 11:32:52;;;;;;;30.63;4.80;;;;;;;;;;5069778;28;20050;-86
2024/01/24 11:35:26;;;;;;;31.00;5.13;;;;;;;;;;4980724;28;20027;-84
2024/01/24 11:37:55;;;;;;;28.80;4.68;;;;;;;;;;5051969;28;20132;-82
2024/01/24 11:40:23;;;;;;;38.30;4.80;;;;;;;;;;5069549;28;20020;-87
2024/01/24 11:42:55;;;;;;;37.22;4.63;;;;;;;;;;5069967;28;20051;-85
2024/01/24 11:45:21;;;;;;;29.80;4.82;;;;;;;;;;5055474;28;20119;-85
2024/01/24 11:47:47;;;;;;;33.88;4.57;;;;;;;;;;5070232;28;20487;-85
2024/01/24 11:50:12;;;;;;;29.60;4.77;;;;;;;;;;5069403;28;20044;-84
2024/01/24 11:52:38;;;;;;;30.20;4.50;;;;;;;;;;5077745;28;20020;-85
2024/01/24 11:55:03;;;;;;;24.10;4.23;;;;;;;;;;5090537;28;20020;-85
2024/01/24 11:57:29;;;;;;;24.40;4.23;;;;;;;;;;5073189;28;20533;-85
2024/01/24 11:59:55;;;;;;;32.60;4.75;;;;;;;;;;5069850;28;20021;-85
2024/01/24 12:02:21;;;;;;;29.27;4.33;;;;;;;;;;5072417;28;20423;-85
2024/01/24 12:04:49;;;;;;;26.07;3.90;;;;;;;;;;5083578;28;20282;-85
2024/01/24 12:07:14;;;;;;;26.23;4.03;;;;;;;;;;5075174;28;20028;-84
2024/01/24 12:09:40;;;;;;;24.47;5.03;;;;;;;;;;5074759;28;20595;-85
2024/01/24 12:12:05;;;;;;;34.50;4.13;;;;;;;;;;5059316;28;20558;-86
2024/01/24 12:14:30;;;;;;;30.15;4.78;;;;;;;;;;5071819;28;20031;-92
2024/01/24 12:16:56;;;;;;;25.27;4.17;;;;;;;;;;5080274;28;20028;-90
2024/01/24 12:19:21;;;;;;;27.70;4.83;;;;;;;;;;5071474;28;20368;-90
2024/01/24 12:21:46;;;;;;;29.33;4.47;;;;;;;;;;5075682;28;20024;-93
2024/01/24 12:24:11;;;;;;;31.83;4.70;;;;;;;;;;5077366;28;20027;-92
2024/01/24 12:26:37;;;;;;;29.77;4.20;;;;;;;;;;5093386;28;20099;-92
2024/01/24 12:29:03;;;;;;;31.93;5.40;;;;;;;;;;5080394;28;20409;-92
2024/01/24 12:31:28;;;;;;;31.13;4.97;;;;;;;;;;5070133;28;20467;-91
2024/01/24 12:33:55;;;;;;;29.73;4.90;;;;;;;;;;5070810;28;20021;-92
2024/01/24 12:36:21;;;;;;;27.05;4.07;;;;;;;;;;5073369;28;20036;-91
2024/01/24 12:38:47;;;;;;;35.35;4.75;;;;;;;;;;5072994;28;20483;-92
2024/01/24 12:41:12;;;;;;;21.07;4.00;;;;;;;;;;5075772;28;20082;-92
2024/01/24 12:43:37;;;;;;;29.73;4.37;;;;;;;;;;5066110;28;20024;-91
2024/01/24 12:46:07;;;;;;;30.47;4.43;;;;;;;;;;5064703;28;20081;-93
2024/01/24 12:48:32;;;;;;;23.63;3.50;;;;;;;;;;5085002;28;20016;-92
2024/01/24 12:50:57;;;;;;;33.27;4.13;;;;;;;;;;5071188;28;20029;-90
2024/01/24 12:53:22;;;;;;;25.80;3.83;;;;;;;;;;5075023;28;20016;-91
2024/01/24 12:55:48;;;;;;;29.77;4.30;;;;;;;;;;5072538;28;20020;-93
2024/01/24 12:58:15;;;;;;;29.42;4.03;;;;;;;;;;5073478;28;20115;-91
2024/01/24 13:00:42;;;;;;;27.17;4.23;;;;;;;;;;5058742;28;20016;-94
2024/01/24 13:03:07;;;;;;;32.25;4.25;;;;;;;;;;5089818;28;20169;-92
2024/01/24 13:05:32;;;;;;;25.07;4.23;;;;;;;;;;5091508;28;20074;-92
2024/01/24 13:07:57;;;;;;;20.33;3.93;;;;;;;;;;5098427;28;20031;-93
2024/01/24 13:10:23;;;;;;;35.13;5.18;;;;;;;;;;5090587;28;20066;-92
2024/01/24 13:12:49;;;;;;;29.70;4.20;;;;;;;;;;5058735;28;20027;-93
2024/01/24 13:15:14;;;;;;;31.90;4.87;;;;;;;;;;5073778;28;20495;-85
2024/01/24 13:17:39;;;;;;;24.63;3.73;;;;;;;;;;5073892;28;20337;-86
2024/01/24 13:20:05;;;;;;;32.40;4.23;;;;;;;;;;5076082;28;20063;-86
2024/01/24 13:22:30;;;;;;;26.83;4.20;;;;;;;;;;5090359;28;20111;-85
2024/01/24 13:24:55;;;;;;;25.73;4.50;;;;;;;;;;5072693;28;20470;-86
2024/01/24 13:27:21;;;;;;;32.23;4.53;;;;;;;;;;5077325;28;20423;-86
2024/01/24 13:29:46;;;;;;;24.17;4.83;;;;;;;;;;5052597;28;20081;-86
2024/01/24 13:32:11;;;;;;;30.17;4.80;;;;;;;;;;5086989;28;20314;-85
2024/01/24 13:34:36;;;;;;;30.87;4.10;;;;;;;;;;5055785;28;20016;-86
2024/01/24 13:37:02;;;;;;;26.70;4.37;;;;;;;;;;5076354;28;20194;-85
2024/01/24 13:39:27;;;;;;;33.40;4.30;;;;;;;;;;5076425;28;20121;-85
2024/01/24 13:41:52;;;;;;;27.40;3.97;;;;;;;;;;5059609;28;20033;-85
2024/01/24 13:44:18;;;;;;;27.53;4.10;;;;;;;;;;5068623;28;20042;-86
2024/01/24 13:46:43;;;;;;;21.03;3.80;;;;;;;;;;5076575;28;20027;-86
2024/01/24 13:49:09;;;;;;;26.92;3.88;;;;;;;;;;5075827;28;20537;-86
2024/01/24 13:51:35;;;;;;;26.58;4.03;;;;;;;;;;5075579;28;20028;-85
2024/01/24 13:54:00;;;;;;;29.13;4.53;;;;;;;;;;5076331;28;20468;-86
2024/01/24 13:56:26;;;;;;;32.33;5.00;;;;;;;;;;5075002;28;20021;-86
2024/01/24 13:58:51;;;;;;;29.20;4.03;;;;;;;;;;5058331;28;20056;-86
2024/01/24 14:01:16;;;;;;;29.83;4.80;;;;;;;;;;5070664;28;20017;-86
2024/01/24 14:03:42;;;;;;;24.07;3.67;;;;;;;;;;5068040;28;20100;-86
2024/01/24 14:06:07;;;;;;;29.97;4.67;;;;;;;;;;5060808;28;20017;-86
2024/01/24 14:08:33;;;;;;;28.67;4.30;;;;;;;;;;5070082;28;20107;-85
2024/01/24 14:10:58;;;;;;;30.53;4.97;;;;;;;;;;5070968;28;20025;-86
2024/01/24 14:13:23;;;;;;;33.43;4.20;;;;;;;;;;5073253;28;20020;-86
2024/01/24 14:15:49;;;;;;;36.72;5.18;;;;;;;;;;5055980;28;20403;-85
2024/01/24 14:18:14;;;;;;;25.93;3.90;;;;;;;;;;5063476;28;20036;-85
2024/01/24 14:20:39;;;;;;;33.97;4.87;;;;;;;;;;5070746;28;20373;-88
2024/01/24 14:23:06;;;;;;;26.00;4.10;;;;;;;;;;5071684;28;20111;-86
2024/01/24 14:25:31;;;;;;;28.92;5.03;;;;;;;;;;5067363;28;20075;-85
2024/01/24 14:27:56;;;;;;;26.30;4.10;;;;;;;;;;5070766;28;20489;-85